Time;durP1;ratioP1;P1;durP2;ratioP2;P2;SDS_P1;SDS_P2;PMS_P1;PMS_P2;Temp;Humidity;BMP_temperature;BMP_pressure;BME280_temperature;BME280_humidity;BME280_pressure;Samples;Min_cycle;Max_cycle;Signal;HPM_P1;HPM_P2
2023/05/28 00:02:39;;;;;;;18.13;8.05;;;;;;;8.62;100.00;101814.25;10481900;28;20040;-76
2023/05/28 00:07:41;;;;;;;20.98;8.93;;;;;;;8.58;100.00;101811.28;10481117;28;20650;-79
2023/05/28 00:12:42;;;;;;;13.73;8.07;;;;;;;8.48;100.00;101814.94;10478981;28;20091;-79
2023/05/28 00:17:42;;;;;;;13.82;8.40;;;;;;;8.34;100.00;101814.84;10461269;28;20162;-79
2023/05/28 00:22:44;;;;;;;22.48;9.30;;;;;;;8.27;100.00;101809.06;10482368;28;20170;-78
2023/05/28 00:27:44;;;;;;;21.83;8.70;;;;;;;8.27;100.00;101811.69;10478334;28;20111;-78
2023/05/28 00:32:45;;;;;;;18.83;8.13;;;;;;;8.22;100.00;101819.19;10516359;28;20036;-79
2023/05/28 00:37:45;;;;;;;14.95;8.15;;;;;;;8.30;100.00;101810.22;10475592;28;20128;-80
2023/05/28 00:42:46;;;;;;;17.45;7.97;;;;;;;8.38;100.00;101805.53;10484066;28;20140;-80
2023/05/28 00:47:46;;;;;;;25.17;8.65;;;;;;;8.43;100.00;101798.03;10478577;28;20132;-79
2023/05/28 00:52:47;;;;;;;18.85;9.35;;;;;;;8.45;100.00;101789.50;10482320;28;20113;-79
2023/05/28 00:57:48;;;;;;;12.63;7.53;;;;;;;8.40;100.00;101787.41;10458818;28;20044;-79
2023/05/28 01:02:48;;;;;;;15.50;6.40;;;;;;;8.22;100.00;101785.28;10484823;28;20067;-80
2023/05/28 01:07:49;;;;;;;13.73;7.32;;;;;;;8.14;100.00;101789.94;10476611;28;20554;-78
2023/05/28 01:12:50;;;;;;;15.82;7.78;;;;;;;8.01;100.00;101789.84;10480605;28;20468;-78
2023/05/28 01:17:52;;;;;;;11.02;7.20;;;;;;;7.85;100.00;101786.09;10471769;28;20049;-79
2023/05/28 01:22:55;;;;;;;20.42;8.50;;;;;;;7.83;100.00;101784.19;10415658;28;20051;-79
2023/05/28 01:27:55;;;;;;;10.60;6.18;;;;;;;7.79;100.00;101783.03;10432294;28;20500;-79
2023/05/28 01:32:56;;;;;;;15.27;9.73;;;;;;;7.62;100.00;101785.31;10496919;28;20044;-79
2023/05/28 01:37:58;;;;;;;15.55;6.32;;;;;;;7.45;100.00;101783.16;10489669;28;20119;-79
2023/05/28 01:42:58;;;;;;;15.73;8.43;;;;;;;7.35;100.00;101782.44;10470024;28;20037;-79
2023/05/28 01:47:59;;;;;;;19.75;8.38;;;;;;;7.34;100.00;101778.03;10487535;28;20117;-79
2023/05/28 01:53:00;;;;;;;13.05;7.40;;;;;;;7.27;100.00;101773.16;10488556;28;20404;-79
2023/05/28 01:58:00;;;;;;;15.35;8.63;;;;;;;7.19;100.00;101783.00;10488654;28;20124;-79
2023/05/28 02:03:01;;;;;;;19.67;10.07;;;;;;;7.12;100.00;101791.13;10484824;28;20044;-80
2023/05/28 02:08:01;;;;;;;19.10;10.45;;;;;;;7.13;100.00;101802.44;10467721;28;20059;-79
2023/05/28 02:13:03;;;;;;;15.02;9.18;;;;;;;7.13;100.00;101800.75;10485682;28;20052;-79
2023/05/28 02:18:03;;;;;;;17.93;11.37;;;;;;;7.17;100.00;101805.41;10468927;28;20036;-79
2023/05/28 02:23:04;;;;;;;27.05;11.45;;;;;;;7.24;100.00;101804.16;10487136;28;20036;-79
2023/05/28 02:28:04;;;;;;;20.83;11.57;;;;;;;7.35;100.00;101805.00;10467580;28;20068;-79
2023/05/28 02:33:05;;;;;;;22.20;11.50;;;;;;;7.27;100.00;101806.13;10452139;28;20071;-78
2023/05/28 02:38:05;;;;;;;19.60;9.45;;;;;;;7.20;100.00;101812.53;10467767;28;20036;-79
2023/05/28 02:43:06;;;;;;;15.23;11.05;;;;;;;7.11;100.00;101804.03;10486512;28;20069;-79
2023/05/28 02:48:07;;;;;;;19.13;9.15;;;;;;;7.13;100.00;101797.25;10484175;28;20123;-78
2023/05/28 02:53:07;;;;;;;17.63;10.27;;;;;;;7.08;100.00;101803.78;10486625;28;20490;-79
2023/05/28 02:58:07;;;;;;;12.77;8.60;;;;;;;7.04;100.00;101802.66;10428746;28;20041;-79
2023/05/28 03:03:08;;;;;;;19.92;9.82;;;;;;;7.00;100.00;101796.28;10443495;28;20056;-79
2023/05/28 03:08:09;;;;;;;26.42;12.02;;;;;;;6.99;100.00;101789.28;10473909;28;20465;-79
2023/05/28 03:13:09;;;;;;;20.88;10.63;;;;;;;7.08;100.00;101788.16;10443383;28;20040;-80
2023/05/28 03:18:10;;;;;;;13.65;8.65;;;;;;;7.07;100.00;101789.88;10429110;28;20114;-80
2023/05/28 03:23:10;;;;;;;16.02;9.23;;;;;;;7.04;100.00;101781.84;10442176;28;20098;-80
2023/05/28 03:28:11;;;;;;;25.35;11.20;;;;;;;7.09;100.00;101783.09;10430785;28;20127;-79
2023/05/28 03:33:11;;;;;;;18.67;10.20;;;;;;;6.96;100.00;101780.34;10424189;28;20063;-79
2023/05/28 03:38:12;;;;;;;21.85;10.15;;;;;;;6.92;100.00;101794.78;10442519;28;20048;-79
2023/05/28 03:43:12;;;;;;;34.97;10.63;;;;;;;6.80;100.00;101796.44;10441255;28;20504;-79
2023/05/28 03:48:13;;;;;;;23.48;10.98;;;;;;;6.71;100.00;101807.94;10476977;28;20040;-79
2023/05/28 03:53:13;;;;;;;21.45;10.00;;;;;;;6.71;100.00;101813.16;10482051;28;20094;-78
2023/05/28 03:58:15;;;;;;;24.42;11.20;;;;;;;6.89;100.00;101824.09;10415625;28;20041;-79
2023/05/28 04:03:16;;;;;;;19.85;10.93;;;;;;;6.92;100.00;101815.63;10403948;28;20094;-80
2023/05/28 04:08:16;;;;;;;20.42;10.18;;;;;;;7.00;100.00;101818.84;10456812;28;20086;-80
2023/05/28 04:13:17;;;;;;;21.17;10.90;;;;;;;7.11;100.00;101824.84;10402644;28;20037;-79
2023/05/28 04:18:17;;;;;;;22.27;10.93;;;;;;;7.15;100.00;101837.31;10406228;28;20443;-77
2023/05/28 04:23:18;;;;;;;24.02;11.90;;;;;;;7.27;100.00;101825.22;10441464;28;20087;-80
2023/05/28 04:28:19;;;;;;;18.80;9.98;;;;;;;7.61;100.00;101824.28;10440436;28;20059;-80
2023/05/28 04:33:20;;;;;;;16.05;10.10;;;;;;;8.05;100.00;101826.69;10440218;28;20056;-80
2023/05/28 04:38:21;;;;;;;20.20;10.17;;;;;;;8.43;100.00;101827.63;10440507;28;20440;-78
2023/05/28 04:43:21;;;;;;;17.95;8.80;;;;;;;8.56;100.00;101836.38;10413089;28;20129;-79
2023/05/28 04:48:22;;;;;;;23.73;11.10;;;;;;;8.60;100.00;101847.16;10437734;28;20120;-79
2023/05/28 04:53:22;;;;;;;16.73;8.98;;;;;;;8.67;100.00;101832.81;10445409;28;20048;-79
2023/05/28 04:58:23;;;;;;;18.75;8.93;;;;;;;8.69;100.00;101831.22;10431407;28;20037;-79
2023/05/28 05:03:24;;;;;;;17.08;8.27;;;;;;;8.93;100.00;101837.28;10438680;28;20041;-80
2023/05/28 05:08:25;;;;;;;18.83;9.60;;;;;;;9.44;100.00;101836.31;10423052;28;20041;-79
2023/05/28 05:13:26;;;;;;;17.17;9.17;;;;;;;10.16;100.00;101837.59;10430646;28;20037;-80
2023/05/28 05:18:26;;;;;;;15.63;8.32;;;;;;;11.18;100.00;101829.06;10413962;28;20120;-78
2023/05/28 05:23:27;;;;;;;11.20;6.82;;;;;;;12.18;100.00;101799.91;10449848;28;20037;-77
2023/05/28 05:28:27;;;;;;;16.55;8.48;;;;;;;13.14;100.00;101778.78;10413777;28;20038;-79
2023/05/28 05:33:28;;;;;;;11.93;6.45;;;;;;;14.09;100.00;101767.69;10442935;28;20395;-78
2023/05/28 05:38:30;;;;;;;17.85;8.60;;;;;;;15.02;100.00;101773.66;10426371;28;20064;-79
2023/05/28 05:43:30;;;;;;;21.10;6.63;;;;;;;15.81;100.00;101772.56;10428681;28;20116;-79
2023/05/28 05:48:31;;;;;;;14.53;7.13;;;;;;;16.57;100.00;101786.13;10436257;28;20029;-80
2023/05/28 05:53:31;;;;;;;11.13;6.83;;;;;;;17.73;100.00;101785.75;10443544;28;20029;-79
2023/05/28 05:58:32;;;;;;;12.50;7.07;;;;;;;18.77;100.00;101778.34;10420288;28;20042;-80
2023/05/28 06:03:33;;;;;;;14.95;7.28;;;;;;;19.72;100.00;101786.13;10407720;28;20037;-80
2023/05/28 06:08:34;;;;;;;12.63;7.53;;;;;;;20.74;89.51;101790.22;10423733;28;20056;-79
2023/05/28 06:13:35;;;;;;;18.48;9.73;;;;;;;20.87;96.50;101780.72;10439497;28;20033;-79
2023/05/28 06:18:36;;;;;;;13.20;8.37;;;;;;;21.75;79.44;101784.06;10420692;28;20448;-79
2023/05/28 06:23:37;;;;;;;20.25;8.70;;;;;;;22.35;73.55;101778.72;10435919;28;20120;-79
2023/05/28 06:28:37;;;;;;;15.77;8.20;;;;;;;22.64;74.39;101778.22;10444735;28;20043;-79
2023/05/28 06:33:38;;;;;;;12.40;7.00;;;;;;;22.75;74.18;101786.38;10443234;28;20033;-79
2023/05/28 06:38:38;;;;;;;14.20;8.57;;;;;;;23.30;72.58;101786.06;10447231;28;20040;-79
2023/05/28 06:43:39;;;;;;;11.53;7.83;;;;;;;24.00;63.96;101778.66;10418530;28;20577;-78
2023/05/28 06:48:40;;;;;;;21.60;8.93;;;;;;;23.77;69.87;101782.03;10442669;28;20048;-78
2023/05/28 06:53:40;;;;;;;12.55;8.45;;;;;;;23.55;64.51;101791.63;10441091;28;20120;-78
2023/05/28 06:58:41;;;;;;;10.53;6.63;;;;;;;23.42;71.57;101791.53;10466301;28;20045;-78
2023/05/28 07:03:42;;;;;;;24.00;7.60;;;;;;;24.47;67.23;101782.44;10444275;28;20491;-78
2023/05/28 07:08:44;;;;;;;10.83;6.23;;;;;;;25.16;61.20;101800.53;10446146;28;20041;-78
2023/05/28 07:13:45;;;;;;;15.43;7.90;;;;;;;25.51;58.34;101796.13;10460694;28;20060;-78
2023/05/28 07:18:45;;;;;;;10.70;6.57;;;;;;;25.67;59.43;101804.19;10485045;28;20441;-79
2023/05/28 07:23:46;;;;;;;11.90;8.10;;;;;;;25.99;58.72;101812.16;10517602;28;20139;-79
2023/05/28 07:28:46;;;;;;;10.60;6.47;;;;;;;26.84;54.52;101812.84;10446005;28;20047;-78
2023/05/28 07:33:47;;;;;;;15.27;8.57;;;;;;;26.59;57.49;101815.63;10478946;28;20116;-79
2023/05/28 07:38:47;;;;;;;15.60;8.68;;;;;;;27.74;52.00;101802.34;10484528;28;20115;-79
2023/05/28 07:43:48;;;;;;;12.13;8.43;;;;;;;27.43;52.59;101804.41;10483180;28;20491;-79
2023/05/28 07:48:49;;;;;;;11.88;7.78;;;;;;;27.26;53.51;101800.91;10451572;28;20049;-78
2023/05/28 07:53:50;;;;;;;23.90;9.27;;;;;;;27.74;52.02;101807.72;10483984;28;20115;-79
2023/05/28 07:58:51;;;;;;;;;;;;;;;28.62;47.64;101796.94;10481464;28;20833;-78
2023/05/28 08:03:54;;;;;;;17.37;7.93;;;;;;;28.91;47.09;101793.84;10479991;28;19924;-77
2023/05/28 08:08:54;;;;;;;16.35;6.80;;;;;;;28.82;46.66;101805.66;10443703;28;20086;-77
2023/05/28 08:13:55;;;;;;;;;;;;;;;29.18;46.84;101805.13;10402955;28;20033;-77
2023/05/28 08:18:55;;;;;;;18.10;8.37;;;;;;;28.93;45.64;101796.53;10439960;28;19925;-77
2023/05/28 08:23:55;;;;;;;;;;;;;;;28.91;44.09;101796.56;10426839;28;20503;-78
2023/05/28 08:28:56;;;;;;;14.37;6.30;;;;;;;29.13;43.55;101791.75;10412149;28;19970;-78
2023/05/28 08:33:57;;;;;;;;;;;;;;;29.40;43.48;101776.06;10474039;28;20112;-77
2023/05/28 08:38:57;;;;;;;11.67;5.17;;;;;;;29.02;41.92;101780.25;10434808;28;20360;-77
2023/05/28 08:43:58;;;;;;;11.30;5.22;;;;;;;29.48;38.76;101775.03;10464235;28;20551;-78
2023/05/28 08:48:59;;;;;;;12.57;5.38;;;;;;;30.08;35.66;101760.47;10474098;28;20124;-77
2023/05/28 08:54:02;;;;;;;10.60;5.63;;;;;;;29.63;37.11;101763.09;10478076;28;20049;-78
2023/05/28 08:59:04;;;;;;;7.75;5.10;;;;;;;29.55;38.09;101761.41;10473875;28;20119;-78
2023/05/28 09:04:04;;;;;;;8.70;5.28;;;;;;;30.42;36.62;101751.66;10464194;28;20522;-78
2023/05/28 09:09:07;;;;;;;;;;;;;;;30.06;38.23;101742.53;10451502;28;20033;-75
2023/05/28 09:14:12;;;;;;;16.70;6.10;;;;;;;29.49;40.37;101748.03;10406119;28;19966;-75
2023/05/28 09:19:16;;;;;;;12.73;5.80;;;;;;;30.23;38.09;101740.38;10471403;28;20066;-76
2023/05/28 09:24:24;;;;;;;9.15;5.10;;;;;;;30.12;36.01;101735.19;10450992;28;20055;-77
2023/05/28 09:29:25;;;;;;;41.63;6.80;;;;;;;30.23;39.03;101739.47;10486529;28;20404;-78
2023/05/28 09:34:36;;;;;;;;;;;;;;;30.11;35.38;101730.72;10475904;28;20045;-81
2023/05/28 09:39:40;;;;;;;12.20;5.00;;;;;;;29.94;36.16;101740.91;10486203;28;20433;-78
2023/05/28 09:44:44;;;;;;;10.15;5.47;;;;;;;29.88;36.75;101732.03;10480711;28;20048;-76
2023/05/28 09:49:46;;;;;;;10.38;4.80;;;;;;;30.84;34.29;101729.13;10480714;28;20038;-76
2023/05/28 09:54:53;;;;;;;7.97;4.35;;;;;;;30.63;34.15;101730.53;10458122;28;20036;-79
2023/05/28 09:59:57;;;;;;;12.07;4.68;;;;;;;29.42;35.17;101728.41;10479761;28;20611;-79
2023/05/28 10:04:57;;;;;;;9.25;5.47;;;;;;;29.71;35.00;101728.78;10470272;28;20642;-80
2023/05/28 10:09:58;;;;;;;12.43;4.97;;;;;;;29.77;35.05;101730.47;10420865;28;20051;-79
2023/05/28 10:14:59;;;;;;;15.20;6.23;;;;;;;30.29;36.81;101721.34;10421721;28;20502;-78
2023/05/28 10:20:00;;;;;;;13.07;4.00;;;;;;;29.87;35.65;101738.34;10431397;28;20064;-77
2023/05/28 10:25:00;;;;;;;10.53;5.27;;;;;;;30.44;34.86;101722.81;10446132;28;20123;-76
2023/05/28 10:30:04;;;;;;;10.48;5.10;;;;;;;30.55;35.15;101725.28;10444325;28;20052;-79
2023/05/28 10:35:05;;;;;;;10.63;4.88;;;;;;;30.75;34.50;101730.22;10433190;28;20094;-78
2023/05/28 10:40:08;;;;;;;;;;;;;;;31.10;34.96;101721.31;10444287;28;20111;-79
2023/05/28 10:45:10;;;;;;;6.20;3.47;;;;;;;30.66;37.12;101726.88;10510778;28;19916;-80
2023/05/28 10:50:12;;;;;;;8.65;4.53;;;;;;;31.02;32.58;101735.91;10458137;28;20118;-78
2023/05/28 10:55:12;;;;;;;10.43;5.15;;;;;;;28.49;37.81;101731.56;10481713;28;20097;-78
2023/05/28 11:00:21;;;;;;;11.83;4.87;;;;;;;28.53;38.39;101742.31;10485622;28;20062;-79
2023/05/28 11:05:25;;;;;;;10.57;4.55;;;;;;;29.35;36.74;101726.69;10463984;28;21137;-78
2023/05/28 11:10:27;;;;;;;10.15;4.40;;;;;;;28.85;35.22;101734.69;10484253;28;20166;-78
2023/05/28 11:15:27;;;;;;;11.55;3.97;;;;;;;29.45;33.77;101730.13;10502605;28;20495;-77
2023/05/28 11:20:28;;;;;;;14.73;4.57;;;;;;;30.15;32.32;101724.31;10483237;28;20056;-78
2023/05/28 11:25:28;;;;;;;8.53;3.30;;;;;;;29.97;32.75;101719.28;10461492;28;20068;-81
2023/05/28 11:30:29;;;;;;;8.57;3.97;;;;;;;29.31;32.49;101717.75;10483253;28;20433;-80
2023/05/28 11:35:30;;;;;;;8.98;4.07;;;;;;;29.65;34.50;101712.69;10479602;28;20051;-80
2023/05/28 11:40:33;;;;;;;11.50;5.13;;;;;;;30.68;32.64;101717.78;10467401;28;20472;-81
2023/05/28 11:45:37;;;;;;;7.30;3.63;;;;;;;30.52;32.89;101717.25;10491009;28;20526;-82
2023/05/28 11:50:38;;;;;;;12.50;5.32;;;;;;;29.96;33.80;101720.19;10485633;28;20043;-81
2023/05/28 11:55:38;;;;;;;10.90;3.72;;;;;;;30.52;33.81;101714.53;10495423;28;20420;-79
2023/05/28 12:00:39;;;;;;;9.10;3.60;;;;;;;30.54;34.29;101719.91;10484239;28;20505;-82
2023/05/28 12:05:40;;;;;;;7.60;3.97;;;;;;;30.55;32.46;101713.56;10494685;28;20044;-82
2023/05/28 12:10:40;;;;;;;5.87;3.53;;;;;;;31.21;30.09;101705.72;10479534;28;20117;-82
2023/05/28 12:15:42;;;;;;;8.32;3.97;;;;;;;30.59;30.06;101712.59;10412916;28;20045;-81
2023/05/28 12:20:42;;;;;;;7.18;3.30;;;;;;;30.83;31.25;101711.16;10429276;28;20042;-82
2023/05/28 12:25:43;;;;;;;11.35;5.63;;;;;;;30.50;29.20;101705.59;10441760;28;20037;-81
2023/05/28 12:30:44;;;;;;;7.10;3.80;;;;;;;30.59;31.54;101700.00;10430762;28;20045;-81
2023/05/28 12:35:45;;;;;;;10.88;4.95;;;;;;;30.57;33.52;101700.91;10429518;28;20762;-80
2023/05/28 12:40:45;;;;;;;19.37;6.03;;;;;;;30.74;33.38;101708.66;10418945;28;20127;-79
2023/05/28 12:45:46;;;;;;;17.10;5.43;;;;;;;30.19;35.07;101695.47;10425792;28;20820;-79
2023/05/28 12:50:47;;;;;;;7.28;4.10;;;;;;;29.37;35.57;101710.47;10407700;28;20037;-80
2023/05/28 12:55:50;;;;;;;7.73;4.90;;;;;;;28.41;36.06;101692.19;10412661;28;21177;-79
2023/05/28 13:00:51;;;;;;;16.20;5.30;;;;;;;27.75;37.38;101688.50;10392983;28;20124;-79
2023/05/28 13:05:52;;;;;;;;;;;;;;;26.97;39.22;101682.97;10404756;28;20508;-81
2023/05/28 13:10:53;;;;;;;7.00;3.63;;;;;;;26.06;40.17;101682.53;10414059;28;19921;-81
2023/05/28 13:15:54;;;;;;;10.17;4.80;;;;;;;26.03;42.63;101684.34;10441766;28;20041;-81
2023/05/28 13:20:55;;;;;;;9.48;4.25;;;;;;;26.10;41.01;101681.63;10446498;28;20382;-80
2023/05/28 13:25:56;;;;;;;12.40;5.07;;;;;;;26.52;40.43;101676.09;10427815;28;20091;-81
2023/05/28 13:30:57;;;;;;;5.70;3.67;;;;;;;26.90;39.82;101681.22;10446269;28;20083;-80
2023/05/28 13:35:58;;;;;;;5.97;3.80;;;;;;;26.71;39.49;101672.38;10413685;28;20049;-82
2023/05/28 13:41:02;;;;;;;9.83;4.70;;;;;;;27.09;41.28;101674.81;10419674;28;20048;-82
2023/05/28 13:46:14;;;;;;;13.05;5.28;;;;;;;27.66;38.80;101672.47;10384751;28;20055;-82
2023/05/28 13:51:18;;;;;;;6.78;4.40;;;;;;;27.05;40.17;101670.38;10437029;28;20132;-80
2023/05/28 13:56:19;;;;;;;8.35;4.78;;;;;;;26.34;42.21;101669.00;10437980;28;20121;-80
2023/05/28 14:01:21;;;;;;;9.37;5.90;;;;;;;26.06;44.93;101668.25;10453969;28;20086;-80
2023/05/28 14:06:31;;;;;;;10.52;3.90;;;;;;;25.96;43.85;101667.38;10447930;28;20052;-80
2023/05/28 14:11:31;;;;;;;9.75;3.45;;;;;;;25.86;43.26;101670.97;10461700;28;20040;-80
2023/05/28 14:16:32;;;;;;;13.40;4.53;;;;;;;26.14;42.72;101657.47;10483832;28;20037;-81
2023/05/28 14:21:32;;;;;;;10.73;4.23;;;;;;;25.85;41.39;101662.06;10460033;28;20123;-80
2023/05/28 14:26:33;;;;;;;14.43;4.03;;;;;;;25.95;43.86;101658.44;10459784;28;20041;-81
2023/05/28 14:31:33;;;;;;;8.67;4.47;;;;;;;26.77;39.70;101649.06;10468589;28;20032;-81
2023/05/28 14:36:35;;;;;;;7.20;4.53;;;;;;;26.57;40.30;101649.19;10458149;28;20124;-83
2023/05/28 14:41:35;;;;;;;;;;;;;;;26.88;40.38;101645.44;10462580;28;20090;-82
2023/05/28 14:46:36;;;;;;;8.33;4.37;;;;;;;27.51;42.28;101647.53;10474411;28;19920;-82
2023/05/28 14:51:36;;;;;;;8.13;4.67;;;;;;;27.47;41.93;101653.81;10473871;28;20544;-81
2023/05/28 14:56:37;;;;;;;8.43;4.20;;;;;;;26.56;43.00;101651.91;10485544;28;20128;-82
2023/05/28 15:01:37;;;;;;;7.67;5.23;;;;;;;26.45;44.11;101657.31;10468440;28;20815;-81
2023/05/28 15:06:38;;;;;;;7.80;4.77;;;;;;;26.25;43.85;101650.28;10462058;28;20036;-82
2023/05/28 15:11:38;;;;;;;7.00;3.33;;;;;;;25.81;44.65;101641.53;10468691;28;20040;-81
2023/05/28 15:16:38;;;;;;;9.77;4.17;;;;;;;25.91;43.11;101651.31;10473505;28;20500;-82
2023/05/28 15:21:39;;;;;;;9.97;4.70;;;;;;;25.71;43.62;101646.00;10471083;28;20112;-82
2023/05/28 15:26:40;;;;;;;12.67;5.67;;;;;;;25.75;42.05;101644.22;10462637;28;20119;-82
2023/05/28 15:31:46;;;;;;;6.03;3.30;;;;;;;25.40;42.54;101640.69;10474662;28;20045;-82
2023/05/28 15:36:48;;;;;;;8.38;3.95;;;;;;;25.27;42.77;101642.50;10477242;28;20036;-82
2023/05/28 15:41:48;;;;;;;7.53;4.00;;;;;;;25.26;43.12;101638.06;10477224;28;20500;-82
2023/05/28 15:46:49;;;;;;;8.13;4.27;;;;;;;25.32;44.57;101638.03;10474236;28;20071;-83
2023/05/28 15:51:49;;;;;;;8.75;4.55;;;;;;;25.18;44.28;101639.84;10445506;28;20045;-82
2023/05/28 15:56:50;;;;;;;6.57;3.80;;;;;;;25.05;45.37;101638.94;10435789;28;20079;-82
2023/05/28 16:01:51;;;;;;;9.30;3.87;;;;;;;24.81;46.20;101648.75;10472376;28;20111;-82
2023/05/28 16:06:52;;;;;;;10.07;4.20;;;;;;;24.58;45.53;101654.94;10435156;28;20123;-82
2023/05/28 16:11:54;;;;;;;18.60;4.63;;;;;;;24.52;47.53;101654.94;10443756;28;20045;-82
2023/05/28 16:16:54;;;;;;;6.95;3.45;;;;;;;24.13;44.69;101644.13;10462884;28;20056;-83
2023/05/28 16:21:55;;;;;;;8.03;3.13;;;;;;;23.77;44.37;101645.72;10469820;28;20127;-81
2023/05/28 16:26:55;;;;;;;9.17;4.33;;;;;;;23.47;47.40;101644.66;10473695;28;20127;-81
2023/05/28 16:31:57;;;;;;;7.20;4.03;;;;;;;23.27;47.56;101634.75;10482059;28;20503;-82
2023/05/28 16:36:58;;;;;;;5.50;3.50;;;;;;;23.10;47.08;101631.03;10459871;28;20051;-81
2023/05/28 16:41:58;;;;;;;12.57;4.03;;;;;;;22.94;50.20;101630.91;10462850;28;20051;-80
2023/05/28 16:46:59;;;;;;;8.77;4.53;;;;;;;22.58;50.85;101624.34;10468889;28;20498;-81
2023/05/28 16:51:59;;;;;;;8.70;4.20;;;;;;;22.22;52.05;101621.25;10483330;28;20072;-82
2023/05/28 16:57:02;;;;;;;7.80;3.80;;;;;;;21.96;53.11;101627.19;10485171;28;20119;-82
2023/05/28 17:02:02;;;;;;;10.90;4.25;;;;;;;21.87;54.65;101623.53;10468732;28;20041;-81
2023/05/28 17:07:03;;;;;;;8.03;4.00;;;;;;;21.80;56.49;101625.19;10475537;28;20041;-82
2023/05/28 17:12:03;;;;;;;10.60;4.80;;;;;;;21.75;56.43;101629.56;10489951;28;20037;-83
2023/05/28 17:17:04;;;;;;;8.07;4.83;;;;;;;21.68;55.70;101626.81;10463338;28;20036;-82
2023/05/28 17:22:05;;;;;;;14.13;4.73;;;;;;;21.68;56.66;101628.59;10487852;28;20068;-82
2023/05/28 17:27:05;;;;;;;11.63;5.23;;;;;;;21.61;53.90;101632.91;10470861;28;20127;-86
2023/05/28 17:32:06;;;;;;;7.07;4.00;;;;;;;21.51;55.88;101629.22;10490908;28;20097;-85
2023/05/28 17:37:07;;;;;;;4.73;3.20;;;;;;;21.52;54.85;101635.44;10488060;28;20469;-85
2023/05/28 17:42:07;;;;;;;7.87;4.50;;;;;;;21.31;55.92;101634.25;10487779;28;20551;-86
2023/05/28 17:47:10;;;;;;;9.77;3.73;;;;;;;21.16;56.03;101634.91;10448076;28;20108;-82
2023/05/28 17:52:10;;;;;;;8.30;4.97;;;;;;;21.08;57.18;101644.53;10439553;28;20434;-82
2023/05/28 17:57:11;;;;;;;7.70;3.93;;;;;;;20.94;59.62;101649.59;10423553;28;20171;-80
2023/05/28 18:02:12;;;;;;;12.23;4.70;;;;;;;20.81;61.66;101656.50;10447521;28;20068;-81
2023/05/28 18:07:12;;;;;;;9.32;4.95;;;;;;;20.61;63.57;101657.00;10446392;28;20040;-81
2023/05/28 18:12:15;;;;;;;10.50;5.07;;;;;;;20.53;64.52;101664.81;10423304;28;20511;-81
2023/05/28 18:17:15;;;;;;;12.50;5.82;;;;;;;20.41;66.39;101661.03;10509899;28;20044;-81
2023/05/28 18:22:18;;;;;;;7.97;3.88;;;;;;;20.23;68.32;101660.69;10462420;28;20417;-82
2023/05/28 18:27:18;;;;;;;11.80;5.55;;;;;;;20.06;69.90;101659.44;10478760;28;20072;-82
2023/05/28 18:32:19;;;;;;;13.63;5.88;;;;;;;19.89;71.96;101662.63;10486234;28;20111;-82
2023/05/28 18:37:19;;;;;;;10.93;7.70;;;;;;;19.70;74.41;101663.97;10469256;28;20103;-81
2023/05/28 18:42:20;;;;;;;14.20;5.83;;;;;;;19.56;77.07;101668.06;10485954;28;20063;-83
2023/05/28 18:47:20;;;;;;;11.50;5.65;;;;;;;19.40;81.38;101658.81;10473821;28;20071;-80
2023/05/28 18:52:22;;;;;;;13.65;6.18;;;;;;;19.27;84.24;101671.78;10448156;28;20052;-81
2023/05/28 18:57:22;;;;;;;10.27;6.13;;;;;;;19.17;85.69;101672.44;10494737;28;20040;-83
2023/05/28 19:02:24;;;;;;;16.10;4.40;;;;;;;18.96;86.80;101681.59;10437184;28;20064;-82
2023/05/28 19:07:25;;;;;;;9.25;5.80;;;;;;;18.88;83.98;101692.03;10410588;28;20802;-81
2023/05/28 19:12:25;;;;;;;9.77;5.07;;;;;;;18.67;82.83;101688.78;10436667;28;20046;-81
2023/05/28 19:17:26;;;;;;;10.20;4.90;;;;;;;18.49;83.79;101693.59;10438745;28;20108;-81
2023/05/28 19:22:27;;;;;;;9.63;5.57;;;;;;;18.34;83.37;101703.78;10425456;28;20064;-81
2023/05/28 19:27:28;;;;;;;9.00;4.50;;;;;;;18.16;82.08;101710.31;10422776;28;20523;-80
2023/05/28 19:32:28;;;;;;;8.73;5.40;;;;;;;17.95;80.08;101707.91;10421642;28;20044;-79
2023/05/28 19:37:29;;;;;;;8.50;4.70;;;;;;;17.72;79.69;101720.41;10426277;28;20094;-80
2023/05/28 19:42:29;;;;;;;11.27;4.75;;;;;;;17.66;77.05;101737.03;10453865;28;20036;-80
2023/05/28 19:47:30;;;;;;;10.07;4.68;;;;;;;17.50;78.46;101751.47;10484906;28;20496;-81
2023/05/28 19:52:31;;;;;;;12.65;4.57;;;;;;;17.42;84.05;101747.69;10424426;28;20622;-82
2023/05/28 19:57:31;;;;;;;12.45;4.53;;;;;;;17.25;92.38;101766.53;10435839;28;20392;-85
2023/05/28 20:02:32;;;;;;;14.65;4.22;;;;;;;17.15;97.85;101756.47;10425266;28;20043;-80
2023/05/28 20:07:32;;;;;;;9.07;3.60;;;;;;;16.90;100.00;101770.56;10433947;28;20120;-83
2023/05/28 20:12:33;;;;;;;11.80;5.13;;;;;;;16.73;100.00;101784.06;10439011;28;20120;-82
2023/05/28 20:17:34;;;;;;;11.77;5.10;;;;;;;16.56;100.00;101779.03;10423811;28;20041;-86
2023/05/28 20:22:34;;;;;;;10.13;4.13;;;;;;;16.36;100.00;101796.75;10420362;28;20511;-80
2023/05/28 20:27:35;;;;;;;12.73;3.90;;;;;;;16.24;100.00;101793.63;10411240;28;21916;-79
2023/05/28 20:32:36;;;;;;;13.77;4.22;;;;;;;16.10;100.00;101811.59;10435945;28;20033;-81
2023/05/28 20:37:36;;;;;;;11.38;3.38;;;;;;;15.95;100.00;101822.44;10415759;28;20043;-81
2023/05/28 20:42:37;;;;;;;13.18;5.50;;;;;;;15.73;100.00;101826.78;10408344;28;20066;-80
2023/05/28 20:47:38;;;;;;;12.45;4.95;;;;;;;15.56;100.00;101834.00;10417307;28;20427;-82
2023/05/28 20:52:40;;;;;;;11.75;4.32;;;;;;;15.45;100.00;101844.06;10435751;28;20504;-83
2023/05/28 20:57:45;;;;;;;10.98;5.57;;;;;;;15.25;100.00;101851.13;10414154;28;20116;-82
2023/05/28 21:02:45;;;;;;;9.73;4.07;;;;;;;15.08;100.00;101843.38;10430358;28;20053;-86
2023/05/28 21:07:46;;;;;;;10.27;3.92;;;;;;;15.04;100.00;101853.69;10409494;28;20044;-82
2023/05/28 21:12:47;;;;;;;9.65;4.28;;;;;;;14.76;100.00;101856.00;10403413;28;20037;-82
2023/05/28 21:17:47;;;;;;;9.05;5.13;;;;;;;14.54;100.00;101859.31;10434656;28;20120;-82
2023/05/28 21:22:48;;;;;;;11.48;4.25;;;;;;;14.38;100.00;101853.31;10438567;28;20154;-85
2023/05/28 21:27:50;;;;;;;9.77;5.03;;;;;;;14.36;100.00;101857.59;10437187;28;20068;-82
2023/05/28 21:32:51;;;;;;;;;;;;;;;14.15;100.00;101862.75;10441166;28;20041;-82
2023/05/28 21:37:51;;;;;;;10.85;4.13;;;;;;;14.04;100.00;101870.09;10444876;28;19925;-83
2023/05/28 21:42:52;;;;;;;7.13;4.25;;;;;;;13.92;100.00;101869.50;10444706;28;20502;-83
2023/05/28 21:47:52;;;;;;;16.00;5.70;;;;;;;13.82;100.00;101885.66;10447454;28;20137;-82
2023/05/28 21:52:56;;;;;;;9.90;6.55;;;;;;;13.75;100.00;101887.06;10467175;28;20044;-82
2023/05/28 21:57:57;;;;;;;12.23;4.78;;;;;;;13.63;100.00;101889.97;10481969;28;20037;-82
2023/05/28 22:02:58;;;;;;;7.45;4.10;;;;;;;13.52;100.00;101886.81;10490064;28;20041;-82
2023/05/28 22:07:58;;;;;;;11.57;4.15;;;;;;;13.40;100.00;101892.28;10488725;28;20477;-82
2023/05/28 22:13:00;;;;;;;9.32;4.65;;;;;;;13.35;100.00;101893.75;10462613;28;20057;-81
2023/05/28 22:18:02;;;;;;;;;;;;;;;13.25;100.00;101907.22;10440734;28;20044;-81
2023/05/28 22:23:03;;;;;;;9.30;4.30;;;;;;;13.14;100.00;101894.41;10489350;28;19934;-81
2023/05/28 22:28:04;;;;;;;9.73;3.83;;;;;;;13.04;100.00;101893.03;10505206;28;20166;-81
2023/05/28 22:33:06;;;;;;;14.00;4.95;;;;;;;12.90;100.00;101894.00;10487226;28;20071;-81
2023/05/28 22:38:06;;;;;;;;;;;;;;;12.89;100.00;101897.47;10463321;28;20033;-82
2023/05/28 22:43:07;;;;;;;10.37;4.20;;;;;;;12.78;100.00;101908.28;10448231;28;19917;-81
2023/05/28 22:48:07;;;;;;;7.10;4.38;;;;;;;12.70;100.00;101898.16;10478582;28;20279;-81
2023/05/28 22:53:08;;;;;;;15.80;6.70;;;;;;;12.55;100.00;101912.25;10478384;28;20120;-82